createdAt,value
2019-05-30T00:00:20.014Z,99.90
2019-05-30T00:02:49.410Z,99.90
2019-05-30T00:05:18.834Z,99.90
2019-05-30T00:07:48.223Z,99.90
2019-05-30T00:10:17.639Z,99.90
2019-05-30T00:12:47.039Z,99.90
2019-05-30T00:15:16.546Z,99.90
2019-05-30T00:17:45.877Z,99.90
2019-05-30T00:20:15.392Z,99.90
2019-05-30T00:22:44.779Z,99.90
2019-05-30T00:25:14.594Z,99.90
2019-05-30T00:27:43.990Z,99.90
2019-05-30T00:30:23.955Z,99.90
2019-05-30T00:32:44.371Z,99.90
2019-05-30T00:35:13.691Z,99.90
2019-05-30T00:37:43.080Z,99.90
2019-05-30T00:40:12.613Z,99.90
2019-05-30T00:42:41.931Z,99.90
2019-05-30T00:45:20.799Z,99.90
2019-05-30T00:47:42.504Z,99.90
2019-05-30T00:50:11.833Z,99.90
2019-05-30T00:52:41.163Z,99.90
2019-05-30T00:55:10.492Z,99.90
2019-05-30T05:16:57.438Z,99.90
2019-05-30T05:19:26.921Z,99.90
2019-05-30T05:21:56.317Z,99.90
2019-05-30T05:24:25.707Z,99.90
2019-05-30T05:26:55.031Z,99.90
2019-05-30T05:29:24.358Z,99.90
2019-05-30T05:31:53.687Z,99.90
2019-05-30T05:34:23.024Z,99.90
2019-05-30T05:36:52.423Z,99.90
2019-05-30T05:39:22.235Z,99.90
2019-05-30T05:41:51.771Z,99.90
2019-05-30T05:44:22.359Z,99.90
2019-05-30T05:46:51.806Z,99.90
2019-05-30T05:49:22.529Z,99.90
2019-05-30T05:51:52.522Z,99.90
2019-05-30T05:54:22.984Z,99.90
2019-05-30T05:56:52.443Z,99.90
2019-05-30T05:59:22.802Z,99.90
2019-05-30T06:01:52.384Z,99.90
2019-05-30T06:04:21.819Z,99.90
2019-05-30T06:06:51.151Z,99.90
2019-05-30T06:09:20.631Z,99.90
2019-05-30T06:11:50.070Z,99.90
2019-05-30T06:14:19.845Z,99.90
2019-05-30T06:16:49.375Z,99.90
2019-05-30T06:19:19.200Z,99.90
2019-05-30T06:21:53.850Z,99.90
2019-05-30T06:24:19.966Z,99.90
2019-05-30T06:26:49.310Z,99.90
2019-05-30T06:29:18.652Z,99.90
2019-05-30T06:31:48.078Z,99.90
2019-05-30T06:34:30.312Z,99.90
2019-05-30T06:36:48.535Z,99.90
2019-05-30T06:39:19.167Z,99.90
2019-05-30T06:41:48.646Z,99.90
2019-05-30T06:44:17.981Z,99.90
2019-05-30T06:46:47.419Z,99.90
2019-05-30T06:49:16.822Z,99.90
2019-05-30T06:51:46.160Z,99.90
2019-05-30T06:54:15.584Z,99.90
2019-05-30T06:56:44.970Z,99.90
2019-05-30T06:59:14.327Z,99.90
2019-05-30T07:01:43.663Z,99.90
2019-05-30T07:04:13.384Z,99.90
2019-05-30T07:06:43.119Z,99.90
2019-05-30T07:09:12.927Z,99.90
2019-05-30T07:11:42.290Z,99.90
2019-05-30T07:14:11.619Z,99.90
2019-05-30T07:16:40.961Z,99.90
2019-05-30T07:19:10.374Z,99.90
2019-05-30T07:21:39.776Z,99.90
2019-05-30T07:24:09.178Z,99.90
2019-05-30T07:26:38.506Z,99.90
2019-05-30T07:29:07.835Z,99.40
2019-05-30T07:31:37.194Z,98.90
2019-05-30T07:34:06.538Z,98.90
2019-05-30T07:36:35.950Z,97.90
2019-05-30T07:39:07.356Z,99.20
2019-05-30T07:41:36.695Z,96.70
2019-05-30T07:44:06.352Z,97.80
2019-05-30T07:46:35.679Z,98.10
2019-05-30T07:49:05.149Z,96.60
2019-05-30T07:51:34.724Z,96.10
2019-05-30T07:54:04.326Z,94.80
2019-05-30T07:56:33.738Z,95.40
2019-05-30T07:59:03.065Z,93.40
2019-05-30T08:01:32.580Z,92.60
2019-05-30T08:04:02.002Z,94.40
2019-05-30T08:06:31.559Z,92.70
2019-05-30T08:09:00.931Z,91.80
2019-05-30T08:11:30.843Z,91.60
2019-05-30T08:14:00.267Z,90.60
2019-05-30T08:16:29.671Z,92.10
2019-05-30T08:18:58.999Z,91.80
2019-05-30T08:21:28.397Z,91.40
2019-05-30T08:23:57.724Z,90.50
2019-05-30T08:26:28.005Z,85.60
2019-05-30T08:28:57.451Z,87.00
2019-05-30T08:31:26.780Z,86.30
2019-05-30T08:33:56.186Z,81.60
2019-05-30T08:36:25.518Z,82.70
2019-05-30T08:38:54.910Z,82.60
2019-05-30T08:41:24.223Z,82.10
2019-05-30T08:43:53.641Z,83.90
2019-05-30T08:46:22.963Z,82.10
2019-05-30T08:48:52.286Z,80.10
2019-05-30T08:56:19.050Z,81.70
2019-05-30T08:58:48.444Z,79.50
2019-05-30T09:01:17.845Z,78.00
2019-05-30T09:03:47.232Z,77.30
2019-05-30T09:06:16.565Z,80.10
2019-05-30T09:08:46.386Z,78.50
2019-05-30T09:11:15.762Z,78.60
2019-05-30T09:13:46.589Z,78.30
2019-05-30T09:16:16.104Z,80.40
2019-05-30T09:18:45.430Z,81.10
2019-05-30T09:21:14.778Z,81.00
2019-05-30T09:23:44.140Z,77.50
2019-05-30T09:26:13.511Z,77.60
2019-05-30T09:28:44.110Z,80.50
2019-05-30T09:31:13.609Z,77.60
2019-05-30T09:33:42.935Z,77.70
2019-05-30T09:36:13.846Z,77.90
2019-05-30T09:41:13.025Z,79.00
2019-05-30T09:43:42.954Z,79.50
2019-05-30T09:46:12.718Z,78.60
2019-05-30T09:48:43.166Z,80.90
2019-05-30T09:51:12.672Z,83.40
2019-05-30T09:53:42.727Z,80.60
2019-05-30T09:56:13.107Z,80.40
2019-05-30T09:58:43.815Z,82.90
2019-05-30T10:01:13.345Z,79.40
2019-05-30T10:03:43.643Z,78.10
2019-05-30T10:06:28.535Z,77.40
2019-05-30T10:08:46.543Z,77.50
2019-05-30T10:11:16.264Z,76.90
2019-05-30T10:13:47.247Z,75.70
2019-05-30T10:16:16.719Z,75.50
2019-05-30T10:18:47.254Z,76.00
2019-05-30T10:21:17.054Z,75.70
2019-05-30T10:23:47.582Z,74.80
2019-05-30T10:26:17.308Z,75.40
2019-05-30T10:28:47.790Z,75.20
2019-05-30T10:31:17.512Z,75.10
2019-05-30T10:33:47.936Z,76.20
2019-05-30T10:36:19.966Z,73.90
2019-05-30T10:38:50.267Z,73.90
2019-05-30T10:41:19.846Z,71.80
2019-05-30T10:43:49.171Z,73.30
2019-05-30T10:46:18.591Z,70.10
2019-05-30T10:48:49.076Z,70.10
2019-05-30T10:51:18.914Z,69.00
2019-05-30T10:53:49.003Z,69.30
2019-05-30T10:56:19.395Z,69.40
2019-05-30T10:58:48.724Z,68.90
2019-05-30T11:01:18.064Z,68.60
2019-05-30T11:03:48.687Z,67.80
2019-05-30T11:06:27.860Z,67.40
2019-05-30T11:09:00.020Z,68.40
2019-05-30T11:11:29.355Z,68.30
2019-05-30T11:13:58.744Z,67.20
2019-05-30T11:16:28.103Z,67.00
2019-05-30T11:18:57.960Z,68.00
2019-05-30T11:21:27.327Z,67.10
2019-05-30T11:23:56.785Z,68.30
2019-05-30T11:26:26.156Z,66.10
2019-05-30T11:28:56.723Z,65.20
2019-05-30T11:31:26.191Z,66.40
2019-05-30T11:33:55.530Z,62.30
2019-05-30T11:36:24.923Z,61.20
2019-05-30T11:38:55.338Z,62.50
2019-05-30T11:41:24.742Z,62.80
2019-05-30T11:43:54.083Z,62.90
2019-05-30T11:46:23.418Z,62.70
2019-05-30T11:48:53.678Z,63.70
2019-05-30T11:51:23.037Z,63.30
2019-05-30T11:53:52.432Z,62.10
2019-05-30T11:56:21.774Z,64.60
2019-05-30T11:58:51.932Z,63.60
2019-05-30T12:01:21.400Z,62.90
2019-05-30T12:03:50.852Z,63.00
2019-05-30T12:06:20.256Z,61.00
2019-05-30T12:08:50.689Z,62.20
2019-05-30T12:11:20.089Z,62.70
2019-05-30T12:13:49.500Z,63.80
2019-05-30T12:16:18.896Z,64.80
2019-05-30T12:18:48.373Z,64.40
2019-05-30T12:21:17.731Z,63.90
2019-05-30T12:23:47.064Z,64.70
2019-05-30T12:26:16.394Z,65.30
2019-05-30T12:28:45.728Z,66.30
2019-05-30T12:31:15.055Z,67.00
2019-05-30T12:33:44.454Z,68.70
2019-05-30T12:36:13.862Z,70.20
2019-05-30T12:38:43.219Z,69.30
2019-05-30T12:41:12.618Z,69.80
2019-05-30T12:43:41.947Z,70.80
2019-05-30T12:46:11.260Z,71.30
2019-05-30T12:48:40.662Z,72.80
2019-05-30T12:51:09.994Z,72.60
2019-05-30T12:53:39.329Z,72.60
2019-05-30T12:56:08.746Z,73.70
2019-05-30T12:58:38.138Z,73.70
2019-05-30T13:01:07.475Z,72.20
2019-05-30T13:03:37.023Z,72.50
2019-05-30T13:06:07.553Z,73.30
2019-05-30T13:08:36.962Z,73.20
2019-05-30T13:11:06.294Z,74.40
2019-05-30T13:13:35.630Z,74.90
2019-05-30T13:16:07.632Z,76.80
2019-05-30T13:18:36.016Z,77.00
2019-05-30T13:21:06.315Z,78.40
2019-05-30T13:23:35.772Z,80.00
2019-05-30T13:26:05.935Z,80.80
2019-05-30T13:28:35.382Z,81.40
2019-05-30T13:31:04.787Z,82.00
2019-05-30T13:33:34.147Z,81.90
2019-05-30T13:36:03.529Z,82.60
2019-05-30T13:38:32.955Z,82.90
2019-05-30T13:41:03.513Z,83.30
2019-05-30T13:43:33.024Z,84.30
2019-05-30T13:46:02.877Z,84.60
2019-05-30T13:48:32.667Z,85.50
2019-05-30T13:51:02.778Z,85.80
2019-05-30T13:53:32.263Z,85.30
2019-05-30T13:56:01.600Z,85.60
2019-05-30T13:58:30.927Z,87.10
2019-05-30T14:01:04.828Z,86.80
2019-05-30T14:03:31.311Z,87.20
2019-05-30T14:06:02.815Z,87.60
2019-05-30T14:08:41.222Z,88.30
2019-05-30T14:11:02.743Z,88.60
2019-05-30T14:13:32.063Z,89.40
2019-05-30T14:16:01.393Z,90.10
2019-05-30T14:18:30.726Z,90.30
2019-05-30T14:21:01.864Z,90.90
2019-05-30T14:23:31.096Z,90.90
2019-05-30T14:26:01.249Z,91.10
2019-05-30T14:28:30.666Z,91.20
2019-05-30T14:30:59.991Z,91.50
2019-05-30T14:33:29.323Z,91.90
2019-05-30T14:35:58.663Z,91.90
2019-05-30T14:38:27.999Z,92.30
2019-05-30T14:40:57.328Z,92.30
2019-05-30T14:43:26.642Z,92.80
2019-05-30T14:45:55.966Z,92.80
2019-05-30T14:48:25.323Z,93.00
2019-05-30T14:50:54.752Z,92.70
2019-05-30T14:53:24.090Z,92.50
2019-05-30T14:55:53.434Z,92.60
2019-05-30T14:58:23.030Z,92.40
2019-05-30T15:00:52.384Z,91.90
2019-05-30T15:03:21.738Z,91.90
2019-05-30T15:05:51.122Z,92.30
2019-05-30T15:08:20.528Z,91.70
2019-05-30T15:10:49.927Z,91.80
2019-05-30T15:13:19.254Z,91.80
2019-05-30T15:15:48.590Z,92.20
2019-05-30T15:18:17.919Z,91.70
2019-05-30T15:20:47.255Z,92.00
2019-05-30T15:23:16.595Z,92.20
2019-05-30T15:25:45.924Z,92.50
2019-05-30T15:28:16.183Z,92.60
2019-05-30T15:30:45.674Z,93.00
2019-05-30T15:33:15.078Z,93.20
2019-05-30T15:35:44.428Z,93.10
2019-05-30T15:38:15.003Z,93.40
2019-05-30T15:40:44.447Z,93.50
2019-05-30T15:43:13.787Z,93.80
2019-05-30T15:45:43.114Z,94.10
2019-05-30T15:48:12.446Z,94.50
2019-05-30T15:50:41.859Z,94.70
2019-05-30T15:53:11.256Z,95.10
2019-05-30T15:58:09.431Z,95.40
2019-05-30T16:00:38.792Z,95.90
2019-05-30T16:03:08.275Z,96.20
2019-05-30T16:05:37.690Z,96.50
2019-05-30T16:08:07.047Z,96.60
2019-05-30T16:10:36.957Z,97.00
2019-05-30T16:13:06.807Z,97.20
2019-05-30T16:15:36.168Z,97.60
2019-05-30T16:18:05.714Z,97.80
2019-05-30T16:20:35.056Z,97.70
2019-05-30T16:23:04.461Z,98.00
2019-05-30T16:25:33.863Z,98.00
2019-05-30T16:28:03.201Z,98.30
2019-05-30T16:30:32.530Z,98.50
2019-05-30T16:33:01.852Z,98.80
2019-05-30T16:35:31.183Z,99.10
2019-05-30T16:38:00.572Z,99.20
2019-05-30T16:40:29.923Z,99.80
2019-05-30T16:42:59.252Z,99.90
2019-05-30T16:45:28.571Z,99.90
2019-05-30T16:47:57.912Z,99.90
2019-05-30T16:50:27.382Z,99.90
2019-05-30T16:52:56.739Z,99.90
2019-05-30T16:55:27.527Z,99.90
2019-05-30T16:57:57.132Z,99.90
2019-05-30T17:00:26.720Z,99.90
2019-05-30T17:02:56.113Z,99.90
2019-05-30T17:05:25.452Z,99.90
2019-05-30T17:07:54.808Z,99.90
2019-05-30T17:10:32.261Z,99.90
2019-05-30T17:12:55.592Z,99.90
2019-05-30T17:15:26.043Z,99.90
2019-05-30T17:17:55.618Z,99.90
2019-05-30T17:20:24.970Z,99.90
2019-05-30T17:22:54.306Z,99.90
2019-05-30T17:25:25.087Z,99.90
2019-05-30T17:27:55.077Z,99.90
2019-05-30T17:30:25.728Z,99.90
2019-05-30T17:32:55.263Z,99.90
2019-05-30T17:35:24.686Z,99.90
2019-05-30T17:37:54.111Z,99.90
2019-05-30T17:40:39.361Z,99.90
2019-05-30T17:42:54.507Z,99.90
2019-05-30T17:45:25.206Z,99.90
2019-05-30T17:48:02.577Z,99.90
2019-05-30T17:50:25.888Z,99.90
2019-05-30T17:52:55.308Z,99.90
2019-05-30T17:55:25.921Z,99.90
2019-05-30T17:57:55.455Z,99.90
2019-05-30T18:00:26.447Z,99.90
2019-05-30T18:02:55.913Z,99.90
2019-05-30T18:05:26.748Z,99.90
2019-05-30T18:07:56.210Z,99.90
2019-05-30T18:10:26.852Z,99.90
2019-05-30T18:12:56.630Z,99.90
2019-05-30T18:15:28.952Z,99.90
2019-05-30T18:17:57.404Z,99.90
2019-05-30T18:20:27.355Z,99.90
2019-05-30T18:22:57.236Z,99.90
2019-05-30T18:25:27.659Z,99.90
2019-05-30T18:27:57.343Z,99.90
2019-05-30T18:30:39.980Z,99.90
2019-05-30T18:33:09.594Z,99.90
2019-05-30T18:38:07.783Z,99.90
2019-05-30T18:40:38.697Z,99.90
2019-05-30T18:43:08.137Z,99.90
2019-05-30T18:45:42.214Z,99.90
2019-05-30T18:48:12.973Z,99.90
2019-05-30T18:50:42.619Z,99.90
2019-05-30T18:53:12.475Z,99.90
2019-05-30T18:55:41.826Z,99.90
2019-05-30T18:58:11.180Z,99.90
2019-05-30T19:00:40.611Z,99.90
2019-05-30T19:03:10.069Z,99.90
2019-05-30T19:05:39.488Z,99.90
2019-05-30T19:08:08.958Z,99.90
2019-05-30T19:10:38.367Z,99.90
2019-05-30T19:13:07.715Z,99.90
2019-05-30T19:15:37.649Z,99.90
2019-05-30T19:18:09.110Z,99.90
2019-05-30T19:20:38.130Z,99.90
2019-05-30T19:23:07.532Z,99.90
2019-05-30T19:25:37.893Z,99.90
2019-05-30T19:28:07.485Z,99.90
2019-05-30T19:30:37.003Z,99.90
2019-05-30T19:33:06.429Z,99.90
2019-05-30T19:35:35.854Z,99.90
2019-05-30T19:38:05.281Z,99.90
2019-05-30T19:40:35.747Z,99.90
2019-05-30T19:43:05.414Z,99.90
2019-05-30T19:45:36.016Z,99.90
2019-05-30T19:48:05.567Z,99.90
2019-05-30T19:50:34.931Z,99.90
2019-05-30T19:53:04.458Z,99.90
2019-05-30T19:55:35.305Z,99.90
2019-05-30T19:58:06.387Z,99.90
2019-05-30T20:00:55.589Z,99.90
2019-05-30T20:03:07.006Z,99.90
2019-05-30T20:05:36.652Z,99.90
2019-05-30T20:08:06.154Z,99.90
2019-05-30T20:10:37.111Z,99.90
2019-05-30T20:13:06.831Z,99.90
2019-05-30T20:15:37.423Z,99.90
2019-05-30T20:18:07.254Z,99.90
2019-05-30T20:20:51.209Z,99.90
2019-05-30T20:23:07.675Z,99.90
2019-05-30T20:25:40.793Z,99.90
2019-05-30T20:28:08.183Z,99.90
2019-05-30T20:30:37.526Z,99.90
2019-05-30T20:33:07.196Z,99.90
2019-05-30T20:35:38.504Z,99.90
2019-05-30T20:38:07.659Z,99.90
2019-05-30T20:40:37.022Z,99.90
2019-05-30T20:43:06.432Z,99.90
2019-05-30T20:45:39.520Z,99.90
2019-05-30T20:48:07.123Z,99.90
2019-05-30T20:50:37.082Z,99.90
2019-05-30T20:53:06.636Z,99.90
2019-05-30T20:55:36.405Z,99.90
2019-05-30T20:58:06.103Z,99.90
2019-05-30T21:00:40.060Z,99.90
2019-05-30T21:03:09.743Z,99.90
2019-05-30T21:05:40.266Z,99.90
2019-05-30T21:08:09.634Z,99.90
2019-05-30T21:10:41.274Z,99.90
2019-05-30T21:13:10.894Z,99.90
2019-05-30T21:15:41.759Z,99.90
2019-05-30T21:18:11.258Z,99.90
2019-05-30T21:20:40.594Z,99.90
2019-05-30T21:23:10.031Z,99.90
2019-05-30T21:25:39.371Z,99.90
2019-05-30T21:28:08.706Z,99.90
2019-05-30T21:30:38.887Z,99.90
2019-05-30T21:33:08.930Z,99.90
2019-05-30T21:35:39.597Z,99.90
2019-05-30T21:38:09.143Z,99.90
2019-05-30T21:40:38.487Z,99.90
2019-05-30T21:43:07.828Z,99.90
2019-05-30T21:45:38.408Z,99.90
2019-05-30T21:48:08.114Z,99.90
2019-05-30T21:50:37.454Z,99.90
2019-05-30T21:53:06.790Z,99.90
2019-05-30T21:55:36.134Z,99.90
2019-05-30T21:58:05.467Z,99.90
2019-05-30T22:01:36.987Z,99.90
2019-05-30T22:04:07.325Z,99.90
2019-05-30T22:06:36.983Z,99.90
2019-05-30T22:09:12.863Z,99.90
2019-05-30T22:11:43.497Z,99.90
2019-05-30T22:14:13.031Z,99.90
2019-05-30T22:16:43.846Z,99.90
2019-05-30T22:19:13.502Z,99.90
2019-05-30T22:21:44.170Z,99.90
2019-05-30T22:24:13.603Z,99.90
2019-05-30T22:26:44.199Z,99.90
2019-05-30T22:29:13.850Z,99.90
2019-05-30T22:31:44.533Z,99.90
2019-05-30T22:34:14.148Z,99.90
2019-05-30T22:36:44.582Z,99.90
2019-05-30T22:39:13.967Z,99.90
2019-05-30T22:41:43.864Z,99.90
2019-05-30T22:44:13.324Z,99.90
2019-05-30T22:46:44.015Z,99.90
2019-05-30T22:49:13.585Z,99.90
2019-05-30T22:51:42.919Z,99.90
2019-05-30T22:54:12.255Z,99.90
2019-05-30T22:56:41.590Z,99.90
2019-05-30T22:59:11.008Z,99.90
2019-05-30T23:01:40.355Z,99.90
2019-05-30T23:04:09.767Z,99.90
2019-05-30T23:06:39.117Z,99.90
2019-05-30T23:09:09.343Z,99.90
2019-05-30T23:11:38.682Z,99.90
2019-05-30T23:14:08.079Z,99.90
2019-05-30T23:16:37.491Z,99.90
2019-05-30T23:19:06.915Z,99.90
2019-05-30T23:21:36.250Z,99.90
2019-05-30T23:24:05.607Z,99.90
2019-05-30T23:26:34.954Z,99.90
2019-05-30T23:29:04.335Z,99.90
2019-05-30T23:31:34.483Z,99.90
2019-05-30T23:34:03.899Z,99.90
2019-05-30T23:36:33.238Z,99.90
2019-05-30T23:39:02.583Z,99.90
2019-05-30T23:41:32.002Z,99.90
2019-05-30T23:44:10.556Z,99.90
2019-05-30T23:46:32.475Z,99.90
2019-05-30T23:49:01.822Z,99.90
2019-05-30T23:51:31.158Z,99.90
2019-05-30T23:54:00.635Z,99.90
2019-05-30T23:56:30.235Z,99.90
2019-05-30T23:59:01.044Z,99.90
